Observations for LORIENT LANN BIHOUE, France (LFRH)

LFRH 230530Z AUTO 25011KT 0600 0550 R25/0900N R07/0700N FG VV/// 12/12 Q1022 TEMPO 0800 DZ FG   
LFRH 230500Z AUTO 24011KT 0900 0700 R25/1400D R07/1000D FG VV/// 12/12 Q1022 TEMPO 22015G25KT   
LFRH 230430Z AUTO 23011KT 2400 -RADZ BR OVC002 12/12 Q1022 TEMPO 22015G25KT 0800 FG VV///   
LFRH 230400Z AUTO 21012KT 3000 -RADZ BR VV/// 12/12 Q1022 TEMPO 22015G25KT 0800 FG  
LFRH 230330Z AUTO 21010KT 2600 -DZ BR OVC002 12/12 Q1022 TEMPO 22015G25KT 0800 FG VV/// 
LFRH 230300Z AUTO 19010KT 3200 -DZ BR OVC002 11/11 Q1023 TEMPO 22015G25KT 0800 FG VV/// 
LFRH 230230Z AUTO 19008KT 2500 RA BR OVC002 11/11 Q1023 TEMPO 22015G25KT 0800 FG VV///  
LFRH 230200Z AUTO 19010KT 3100 +DZ BR BKN004 BKN013 BKN018 11/11 Q1023 TEMPO 22015G25KT 0800 FG VV///   
LFRH 230130Z AUTO 20007KT 9999 BKN005 BKN034 BKN045 11/10 Q1023 TEMPO 22015G25KT 0800 FG VV///  
LFRH 230100Z AUTO 19007KT 9999 BKN005 BKN044 OVC072 10/10 Q1023 TEMPO 22015G25KT 0800 FG VV///  
LFRH 230030Z AUTO 20007KT 9999 FEW006 OVC068 10/10 Q1024 TEMPO 22015G25KT 0800 FG VV/// 
LFRH 230000Z AUTO 20006KT CAVOK 10/10 Q1024 BECMG 4000 -RA OVC007   
LFRH 222330Z AUTO 20005KT 9999 FEW004 BKN090 BKN110 09/09 Q1024 BECMG 4000 -RA OVC007   
LFRH 222300Z AUTO 21006KT 8000 FEW003 09/09 Q1024 BECMG 3000 -RA OVC007 
LFRH 222230Z AUTO 21005KT 9000 FEW008 BKN094 BKN140 09/09 Q1024 BECMG 3000 -RA OVC007   
LFRH 222200Z AUTO 20004KT 7000 FEW012 SCT130 BKN170 08/08 Q1024 BECMG 3000 -RA OVC007   
LFRH 222130Z AUTO VRB01KT 2100 BR FEW008 OVC130 07/07 Q1024 BECMG 3000 -RA OVC007   
LFRH 222100Z AUTO 22003KT 2800 1200 R25/1700D R07/P2000 BR SCT005 BKN009 BKN014 07/07 Q1024 BECMG 3000 BR OVC010
LFRH 222030Z AUTO 20002KT 1600 0900 R25/1200D R07/1900D BCFG FEW006 BKN011 07/07 Q1024 BECMG 3000 BR
LFRH 222000Z AUTO 00000KT 3400 1300 R25/1700U R07/1300D BR BKN011 08/07 Q1024 BECMG 22010KT 9999 NSW BKN015 
LFRH 221930Z AUTO 28003KT 7000 BKN014 08/07 Q1024 BECMG 22010KT BKN015  
LFRH 221900Z AUTO 28005KT 9000 NSC 08/07 Q1024 BECMG 22010KT
LFRH 221830Z AUTO 27003KT CAVOK 08/06 Q1024 NOSIG   
LFRH 221800Z AUTO 28004KT CAVOK 08/06 Q1024 BECMG 22010KT   
LFRH 221730Z AUTO 28005KT CAVOK 08/06 Q1023 BECMG 22010KT   
LFRH 221700Z AUTO 29006KT 9999 FEW029 10/06 Q1023 BECMG 22010KT 
LFRH 221630Z AUTO 29007KT 260V330 9999 FEW035 11/07 Q1023 NOSIG 
LFRH 221600Z AUTO 29009KT 260V320 9999 FEW027 BKN034 12/07 Q1022 NOSIG  
LFRH 221530Z AUTO 29009KT 260V320 9999 FEW028 BKN035 12/07 Q1022 NOSIG  
LFRH 221500Z AUTO 29012KT 9999 BKN027 BKN033 12/07 Q1022 BECMG 22010KT  
LFRH 221430Z AUTO 29010KT 260V320 9999 BKN026 BKN033 13/08 Q1021 NOSIG  
LFRH 221400Z AUTO 30009KT 260V320 9999 BKN030 OVC036 12/08 Q1021 NOSIG  
LFRH 221330Z AUTO 31013KT 280V340 9999 OVC029 12/07 Q1021 NOSIG 
LFRH 221300Z AUTO 30009KT 9999 OVC028 12/08 Q1021 NOSIG 
LFRH 221230Z AUTO 31012KT 9999 OVC026 12/08 Q1020 NOSIG 
LFRH 221200Z AUTO 31011KT 290V350 9999 BKN025 BKN030 12/08 Q1020 NOSIG  
LFRH 221130Z AUTO 31015KT 270V340 9999 BKN026 13/08 Q1020 NOSIG 
LFRH 221100Z AUTO 32012KT 270V350 9999 SCT027 12/08 Q1019 BECMG 30015G25KT  
LFRH 221030Z AUTO 31014KT 280V340 9999 BKN023 BKN032 12/08 Q1018 BECMG 30015G25KT